createdAt,value
2017-12-29T00:00:24.623Z,997.76
2017-12-29T00:01:05.219Z,997.75
2017-12-29T00:01:45.755Z,997.73
2017-12-29T00:02:26.292Z,997.71
2017-12-29T00:03:06.833Z,997.72
2017-12-29T00:03:47.400Z,997.73
2017-12-29T00:04:27.941Z,997.71
2017-12-29T00:05:08.489Z,997.7
2017-12-29T00:05:49.013Z,997.73
2017-12-29T00:06:29.577Z,997.74
2017-12-29T00:07:10.118Z,997.77
2017-12-29T00:07:50.672Z,997.73
2017-12-29T00:08:31.222Z,997.75
2017-12-29T00:09:11.867Z,997.76
2017-12-29T00:09:52.420Z,997.72
2017-12-29T00:10:32.964Z,997.76
2017-12-29T00:11:13.532Z,997.79
2017-12-29T00:11:54.060Z,997.76
2017-12-29T00:12:34.616Z,997.82
2017-12-29T00:13:15.183Z,997.81
2017-12-29T00:13:55.737Z,997.82
2017-12-29T00:14:36.332Z,997.85
2017-12-29T00:15:16.878Z,997.85
2017-12-29T00:15:57.416Z,997.86
2017-12-29T00:16:38.004Z,997.9
2017-12-29T00:17:18.558Z,997.87
2017-12-29T00:17:59.128Z,997.97
2017-12-29T00:18:39.732Z,997.9
2017-12-29T00:19:20.314Z,997.93
2017-12-29T00:20:00.907Z,997.97
2017-12-29T00:20:41.484Z,997.92
2017-12-29T00:21:22.068Z,997.93
2017-12-29T00:22:02.578Z,997.92
2017-12-29T00:22:43.232Z,997.95
2017-12-29T00:23:23.769Z,997.97
2017-12-29T00:24:04.368Z,997.97
2017-12-29T00:24:44.955Z,997.94
2017-12-29T00:25:25.528Z,997.95
2017-12-29T00:26:06.122Z,997.89
2017-12-29T00:26:46.652Z,997.91
2017-12-29T00:27:27.186Z,997.89
2017-12-29T00:28:07.721Z,997.91
2017-12-29T00:28:48.290Z,997.91
2017-12-29T00:29:28.830Z,997.92
2017-12-29T00:30:09.406Z,997.95
2017-12-29T00:30:49.942Z,997.95
2017-12-29T00:31:30.512Z,997.88
2017-12-29T00:32:11.092Z,997.9
2017-12-29T00:32:51.681Z,997.92
2017-12-29T00:33:32.294Z,997.9
2017-12-29T00:34:12.818Z,997.93
2017-12-29T00:34:53.393Z,997.87
2017-12-29T00:35:33.933Z,997.87
2017-12-29T00:36:14.483Z,997.85
2017-12-29T00:36:55.035Z,997.85
2017-12-29T00:37:35.579Z,997.83
2017-12-29T00:38:16.094Z,997.89
2017-12-29T00:38:56.669Z,997.88
2017-12-29T00:39:37.232Z,997.84
2017-12-29T00:40:17.793Z,997.83
2017-12-29T00:40:58.360Z,997.87
2017-12-29T00:41:38.972Z,997.91
2017-12-29T00:42:19.564Z,997.9
2017-12-29T00:43:00.112Z,997.96
2017-12-29T00:43:40.696Z,997.94
2017-12-29T00:44:21.294Z,997.97
2017-12-29T00:45:01.869Z,997.99
2017-12-29T00:45:42.427Z,997.97
2017-12-29T00:46:22.968Z,998
2017-12-29T00:47:03.551Z,998
2017-12-29T00:47:44.149Z,998.01
2017-12-29T00:48:24.732Z,998.02
2017-12-29T00:49:05.618Z,998.07
2017-12-29T00:49:46.167Z,998.04
2017-12-29T00:50:26.738Z,998.03
2017-12-29T00:51:07.292Z,998.05
2017-12-29T00:51:47.841Z,998.14
2017-12-29T00:52:28.407Z,998.13
2017-12-29T00:53:08.959Z,998.08
2017-12-29T00:53:49.491Z,998.09
2017-12-29T00:54:30.032Z,998.11
2017-12-29T00:55:10.585Z,998.12
2017-12-29T00:55:51.157Z,998.09
2017-12-29T00:56:31.750Z,998.12
2017-12-29T00:57:12.291Z,998.11
2017-12-29T00:57:52.852Z,998.1
2017-12-29T00:58:33.407Z,998.13
2017-12-29T00:59:13.931Z,998.1
2017-12-29T00:59:54.492Z,998.15
2017-12-29T01:00:35.026Z,998.09
2017-12-29T01:01:15.576Z,998.12
2017-12-29T01:01:56.150Z,998.13
2017-12-29T01:02:36.741Z,998.15
2017-12-29T01:03:17.320Z,998.15
2017-12-29T01:03:57.898Z,998.15
2017-12-29T01:04:38.443Z,998.17
2017-12-29T01:05:18.978Z,998.2
2017-12-29T01:05:59.527Z,998.19
2017-12-29T01:06:40.096Z,998.24
2017-12-29T01:07:20.657Z,998.22
2017-12-29T01:08:01.180Z,998.24
2017-12-29T01:08:41.728Z,998.25
2017-12-29T01:09:22.280Z,998.3
2017-12-29T01:10:02.813Z,998.28
2017-12-29T01:10:43.364Z,998.3
2017-12-29T01:11:23.944Z,998.32
2017-12-29T01:12:04.521Z,998.32
2017-12-29T01:12:45.068Z,998.3
2017-12-29T01:13:25.604Z,998.29
2017-12-29T01:14:06.181Z,998.34
2017-12-29T01:14:46.734Z,998.39
2017-12-29T01:15:27.281Z,998.37
2017-12-29T01:16:07.843Z,998.37
2017-12-29T01:16:48.374Z,998.35
2017-12-29T01:17:28.926Z,998.39
2017-12-29T01:18:09.487Z,998.38
2017-12-29T01:18:50.042Z,998.4
2017-12-29T01:19:30.596Z,998.42
2017-12-29T01:20:11.161Z,998.48
2017-12-29T01:20:51.708Z,998.44
2017-12-29T01:21:32.251Z,998.54
2017-12-29T01:22:12.783Z,998.51
2017-12-29T01:22:53.342Z,998.5
2017-12-29T01:23:33.911Z,998.49
2017-12-29T01:24:14.463Z,998.56
2017-12-29T01:24:54.997Z,998.57
2017-12-29T01:25:35.547Z,998.54
2017-12-29T01:26:16.123Z,998.52
2017-12-29T01:26:56.676Z,998.54
2017-12-29T01:27:37.219Z,998.6
2017-12-29T01:28:17.785Z,998.6
2017-12-29T01:28:58.329Z,998.61
2017-12-29T01:29:38.857Z,998.63
2017-12-29T01:30:19.406Z,998.61
2017-12-29T01:30:59.961Z,998.68
2017-12-29T01:31:40.496Z,998.67
2017-12-29T01:32:21.049Z,998.61
2017-12-29T01:33:01.609Z,998.63
2017-12-29T01:33:42.155Z,998.61
2017-12-29T01:34:22.708Z,998.58
2017-12-29T01:35:03.246Z,998.67
2017-12-29T01:35:43.792Z,998.66
2017-12-29T01:36:24.358Z,998.68
2017-12-29T01:37:04.925Z,998.57
2017-12-29T01:37:45.487Z,998.65
2017-12-29T01:38:26.028Z,998.64
2017-12-29T01:39:06.576Z,998.64
2017-12-29T01:39:47.128Z,998.66
2017-12-29T01:40:27.675Z,998.65
2017-12-29T01:41:08.277Z,998.66
2017-12-29T01:41:48.840Z,998.7
2017-12-29T01:42:29.402Z,998.68
2017-12-29T01:43:09.969Z,998.7
2017-12-29T01:43:50.522Z,998.7
2017-12-29T01:44:31.090Z,998.75
2017-12-29T01:45:11.644Z,998.71
2017-12-29T01:45:52.199Z,998.74
2017-12-29T01:46:32.743Z,998.71
2017-12-29T01:47:13.282Z,998.69
2017-12-29T01:47:53.825Z,998.7
2017-12-29T01:48:34.378Z,998.75
2017-12-29T01:49:14.953Z,998.7
2017-12-29T01:49:55.485Z,998.77
2017-12-29T01:50:36.015Z,998.71
2017-12-29T01:51:16.575Z,998.75
2017-12-29T01:51:57.138Z,998.76
2017-12-29T01:52:37.686Z,998.76
2017-12-29T01:53:18.267Z,998.73
2017-12-29T01:53:58.778Z,998.72
2017-12-29T01:54:39.355Z,998.72
2017-12-29T01:55:19.903Z,998.76
2017-12-29T01:56:00.444Z,998.75
2017-12-29T01:56:40.978Z,998.74
2017-12-29T01:57:21.580Z,998.72
2017-12-29T01:58:02.134Z,998.74
2017-12-29T01:58:42.696Z,998.71
2017-12-29T01:59:23.248Z,998.73
2017-12-29T02:00:03.797Z,998.73
2017-12-29T02:00:44.358Z,998.78
2017-12-29T02:01:24.917Z,998.72
2017-12-29T02:02:05.459Z,998.7
2017-12-29T02:02:46.040Z,998.69
2017-12-29T02:03:26.602Z,998.78
2017-12-29T02:04:07.150Z,998.78
2017-12-29T02:04:47.826Z,998.78
2017-12-29T02:05:28.323Z,998.77
2017-12-29T02:06:08.888Z,998.78
2017-12-29T02:06:49.456Z,998.74
2017-12-29T02:07:30.032Z,998.77
2017-12-29T02:08:10.594Z,998.81
2017-12-29T02:08:51.148Z,998.79
2017-12-29T02:09:31.690Z,998.82
2017-12-29T02:10:12.314Z,998.8
2017-12-29T02:10:52.861Z,998.82
2017-12-29T02:11:33.430Z,998.82
2017-12-29T02:12:13.977Z,998.83
2017-12-29T02:12:54.521Z,998.83
2017-12-29T02:13:35.034Z,998.85
2017-12-29T02:14:15.572Z,998.84
2017-12-29T02:14:56.144Z,998.82
2017-12-29T02:15:36.671Z,998.86
2017-12-29T02:16:17.211Z,998.87
2017-12-29T02:16:57.705Z,998.81
2017-12-29T02:17:38.258Z,998.83
2017-12-29T02:18:18.799Z,998.82
2017-12-29T02:18:59.357Z,998.83
2017-12-29T02:19:39.896Z,998.82
2017-12-29T02:20:20.448Z,998.84
2017-12-29T02:21:00.997Z,998.81
2017-12-29T02:21:41.561Z,998.87
2017-12-29T02:22:22.117Z,998.81
2017-12-29T02:23:02.690Z,998.85
2017-12-29T02:23:43.223Z,998.79
2017-12-29T02:24:23.774Z,998.82
2017-12-29T02:25:04.345Z,998.84
2017-12-29T02:25:44.897Z,998.84
2017-12-29T02:26:25.451Z,998.79
2017-12-29T02:27:05.992Z,998.82
2017-12-29T02:27:46.567Z,998.77
2017-12-29T02:28:27.127Z,998.78
2017-12-29T02:29:07.696Z,998.73
2017-12-29T02:29:48.263Z,998.73
2017-12-29T02:30:28.821Z,998.72
2017-12-29T02:31:09.378Z,998.74
2017-12-29T02:31:49.950Z,998.75
2017-12-29T02:32:30.514Z,998.72
2017-12-29T02:33:11.051Z,998.73
2017-12-29T02:33:51.612Z,998.81
2017-12-29T02:34:32.160Z,998.76
2017-12-29T02:35:12.710Z,998.78
2017-12-29T02:35:53.236Z,998.76
2017-12-29T02:36:33.802Z,998.79
2017-12-29T02:37:14.374Z,998.82
2017-12-29T02:37:54.911Z,998.79
2017-12-29T02:38:35.475Z,998.76
2017-12-29T02:39:15.988Z,998.76
2017-12-29T02:39:56.628Z,998.76
2017-12-29T02:40:37.185Z,998.76
2017-12-29T02:41:17.690Z,998.76
2017-12-29T02:41:58.229Z,998.76
2017-12-29T02:42:38.744Z,998.78
2017-12-29T02:43:19.288Z,998.75
2017-12-29T02:43:59.884Z,998.77
2017-12-29T02:44:40.402Z,998.79
2017-12-29T02:45:20.975Z,998.82
2017-12-29T02:46:01.571Z,998.76
2017-12-29T02:46:42.183Z,998.76
2017-12-29T02:47:22.720Z,998.8
2017-12-29T02:48:03.196Z,998.76
2017-12-29T02:48:43.765Z,998.79
2017-12-29T02:49:24.281Z,998.77
2017-12-29T02:50:04.825Z,998.76
2017-12-29T02:50:45.376Z,998.78
2017-12-29T02:51:25.941Z,998.81
2017-12-29T02:52:06.510Z,998.83
2017-12-29T02:52:47.036Z,998.84
2017-12-29T02:53:27.589Z,998.86
2017-12-29T02:54:08.138Z,998.84
2017-12-29T02:54:48.682Z,998.83
2017-12-29T02:55:29.236Z,998.83
2017-12-29T02:56:09.792Z,998.89
2017-12-29T02:56:50.333Z,998.89
2017-12-29T02:57:30.934Z,998.9
2017-12-29T02:58:11.390Z,998.88
2017-12-29T02:58:51.930Z,998.84
2017-12-29T02:59:32.477Z,998.86
2017-12-29T03:00:13.012Z,998.81
2017-12-29T03:00:53.571Z,998.81
2017-12-29T03:01:34.114Z,998.81
2017-12-29T03:02:14.675Z,998.85
2017-12-29T03:02:55.233Z,998.83
2017-12-29T03:03:35.776Z,998.85
2017-12-29T03:04:16.335Z,998.84
2017-12-29T03:04:56.890Z,998.83
2017-12-29T03:05:38.108Z,998.86
2017-12-29T03:06:18.659Z,998.82
2017-12-29T03:06:59.212Z,998.84
2017-12-29T03:07:39.793Z,998.84
2017-12-29T03:08:20.314Z,998.85
2017-12-29T03:09:00.893Z,998.85
2017-12-29T03:09:41.428Z,998.9
2017-12-29T03:10:21.988Z,998.86
2017-12-29T03:11:02.532Z,998.83
2017-12-29T03:11:43.129Z,998.84
2017-12-29T03:12:23.644Z,998.86
2017-12-29T03:13:04.262Z,998.85
2017-12-29T03:13:44.779Z,998.83
2017-12-29T03:14:25.336Z,998.82
2017-12-29T03:15:05.877Z,998.82
2017-12-29T03:15:46.464Z,998.84
2017-12-29T03:16:26.961Z,998.8
2017-12-29T03:17:07.530Z,998.78
2017-12-29T03:17:48.075Z,998.79
2017-12-29T03:18:28.621Z,998.77
2017-12-29T03:19:09.200Z,998.81
2017-12-29T03:19:49.744Z,998.78
2017-12-29T03:20:30.284Z,998.86
2017-12-29T03:21:10.843Z,998.86
2017-12-29T03:21:51.399Z,998.86
2017-12-29T03:22:31.947Z,998.84
2017-12-29T03:23:12.479Z,998.81
2017-12-29T03:23:53.050Z,998.87
2017-12-29T03:24:33.591Z,998.82
2017-12-29T03:25:14.162Z,998.81
2017-12-29T03:25:54.692Z,998.75
2017-12-29T03:26:35.224Z,998.81
2017-12-29T03:27:15.776Z,998.84
2017-12-29T03:27:56.303Z,998.8
2017-12-29T03:28:36.867Z,998.79
2017-12-29T03:29:17.425Z,998.76
2017-12-29T03:29:57.974Z,998.79
2017-12-29T03:30:38.528Z,998.81
2017-12-29T03:31:19.088Z,998.85
2017-12-29T03:31:59.662Z,998.8
2017-12-29T03:32:40.191Z,998.8
2017-12-29T03:33:20.736Z,998.82
2017-12-29T03:34:01.304Z,998.85
2017-12-29T03:34:41.886Z,998.83
2017-12-29T03:35:22.428Z,998.87
2017-12-29T03:36:02.994Z,998.82
2017-12-29T03:36:43.531Z,998.88
2017-12-29T03:37:24.044Z,998.84
2017-12-29T03:38:04.588Z,998.86
2017-12-29T03:38:45.127Z,998.83
2017-12-29T03:39:25.669Z,998.9
2017-12-29T03:40:06.235Z,998.83
2017-12-29T03:40:46.825Z,998.85
2017-12-29T03:41:27.377Z,998.82
2017-12-29T03:42:07.904Z,998.81
2017-12-29T03:42:48.430Z,998.81
2017-12-29T03:43:28.992Z,998.82
2017-12-29T03:44:09.530Z,998.8
2017-12-29T03:44:50.061Z,998.85
2017-12-29T03:45:30.593Z,998.82
2017-12-29T03:46:11.132Z,998.88
2017-12-29T03:46:51.669Z,998.8
2017-12-29T03:47:32.230Z,998.8
2017-12-29T03:48:12.797Z,998.77
2017-12-29T03:48:53.342Z,998.79
2017-12-29T03:49:33.940Z,998.77
2017-12-29T03:50:14.533Z,998.78
2017-12-29T03:50:55.148Z,998.76
2017-12-29T03:51:35.736Z,998.82
2017-12-29T03:52:16.278Z,998.82
2017-12-29T03:52:56.892Z,998.79
2017-12-29T03:53:37.316Z,998.83
2017-12-29T03:54:17.848Z,998.82
2017-12-29T03:54:58.438Z,998.79
2017-12-29T03:55:38.948Z,998.82
2017-12-29T03:56:19.454Z,998.82
2017-12-29T03:57:00.072Z,998.84
2017-12-29T03:57:40.619Z,998.84
2017-12-29T03:58:21.168Z,998.84
2017-12-29T03:59:01.714Z,998.82
2017-12-29T03:59:42.184Z,998.81
2017-12-29T04:00:22.844Z,998.78
2017-12-29T04:01:03.456Z,998.8
2017-12-29T04:01:44.037Z,998.8
2017-12-29T04:02:24.621Z,998.79
2017-12-29T04:03:05.210Z,998.74
2017-12-29T04:03:45.803Z,998.75
2017-12-29T04:04:26.389Z,998.69
2017-12-29T04:05:06.977Z,998.69
2017-12-29T04:05:47.637Z,998.71
2017-12-29T04:06:28.140Z,998.74
2017-12-29T04:07:08.771Z,998.74
2017-12-29T04:07:49.210Z,998.73
2017-12-29T04:08:29.760Z,998.65
2017-12-29T04:09:10.278Z,998.68
2017-12-29T04:09:50.857Z,998.6
2017-12-29T04:10:31.405Z,998.61
2017-12-29T04:11:11.953Z,998.62
2017-12-29T04:11:52.535Z,998.64
2017-12-29T04:12:33.057Z,998.61
2017-12-29T04:13:13.612Z,998.59
2017-12-29T04:13:54.174Z,998.55
2017-12-29T04:14:34.723Z,998.54
2017-12-29T04:15:15.278Z,998.51
2017-12-29T04:15:55.838Z,998.54
2017-12-29T04:16:36.386Z,998.51
2017-12-29T04:17:16.948Z,998.51
2017-12-29T04:17:57.459Z,998.5
2017-12-29T04:18:38.019Z,998.51
2017-12-29T04:19:18.571Z,998.52
2017-12-29T04:19:59.111Z,998.51
2017-12-29T04:20:39.653Z,998.43
2017-12-29T04:21:20.193Z,998.49
2017-12-29T04:22:00.763Z,998.5
2017-12-29T04:22:41.308Z,998.45
2017-12-29T04:23:21.861Z,998.43
2017-12-29T04:24:02.422Z,998.48
2017-12-29T04:24:42.960Z,998.44
2017-12-29T04:25:23.499Z,998.45
2017-12-29T04:26:04.058Z,998.51
2017-12-29T04:26:44.598Z,998.4
2017-12-29T04:27:25.158Z,998.44
2017-12-29T04:28:05.706Z,998.47
2017-12-29T04:28:46.266Z,998.41
2017-12-29T04:29:26.822Z,998.41
2017-12-29T04:30:07.405Z,998.39
2017-12-29T04:30:47.964Z,998.39
2017-12-29T04:31:28.497Z,998.41
2017-12-29T04:32:09.064Z,998.39
2017-12-29T04:32:49.623Z,998.4
2017-12-29T04:33:30.156Z,998.44
2017-12-29T04:34:10.711Z,998.46
2017-12-29T04:34:51.241Z,998.51
2017-12-29T04:35:31.777Z,998.5
2017-12-29T04:36:12.328Z,998.57
2017-12-29T04:36:52.888Z,998.5
2017-12-29T04:37:33.421Z,998.53
2017-12-29T04:38:13.960Z,998.51
2017-12-29T04:38:54.522Z,998.56
2017-12-29T04:39:35.055Z,998.47
2017-12-29T04:40:15.692Z,998.5
2017-12-29T04:40:56.389Z,998.55
2017-12-29T04:41:36.991Z,998.51
2017-12-29T04:42:17.577Z,998.58
2017-12-29T04:42:58.012Z,998.61
2017-12-29T04:43:38.646Z,998.59
2017-12-29T04:44:19.328Z,998.62
2017-12-29T04:44:59.743Z,998.6
2017-12-29T04:45:40.461Z,998.65
2017-12-29T04:46:20.997Z,998.58
2017-12-29T04:47:01.680Z,998.6
2017-12-29T04:47:42.141Z,998.55
2017-12-29T04:48:22.821Z,998.53
2017-12-29T04:49:03.432Z,998.52
2017-12-29T04:49:43.962Z,998.54
2017-12-29T04:50:24.491Z,998.53
2017-12-29T04:51:05.043Z,998.56
2017-12-29T04:51:45.605Z,998.56
2017-12-29T04:52:26.145Z,998.55
2017-12-29T04:53:06.708Z,998.59
2017-12-29T04:53:47.293Z,998.57
2017-12-29T04:54:27.845Z,998.56
2017-12-29T04:55:08.366Z,998.59
2017-12-29T04:55:48.908Z,998.59
2017-12-29T04:56:29.426Z,998.62
2017-12-29T04:57:09.984Z,998.6
2017-12-29T04:57:50.545Z,998.61
2017-12-29T04:58:31.086Z,998.6
2017-12-29T04:59:11.576Z,998.65
2017-12-29T04:59:52.114Z,998.66
2017-12-29T05:00:32.659Z,998.68
2017-12-29T05:01:13.220Z,998.74
2017-12-29T05:01:53.775Z,998.78
2017-12-29T05:02:34.327Z,998.76
2017-12-29T05:03:14.874Z,998.79
2017-12-29T05:03:55.418Z,998.81
2017-12-29T05:04:35.978Z,998.81
2017-12-29T05:05:16.538Z,998.76
2017-12-29T05:05:57.079Z,998.8
2017-12-29T05:06:37.627Z,998.78
2017-12-29T05:07:18.195Z,998.75
2017-12-29T05:07:58.734Z,998.77
2017-12-29T05:08:39.279Z,998.82
2017-12-29T05:09:19.861Z,998.8
2017-12-29T05:10:00.407Z,998.81
2017-12-29T05:10:40.972Z,998.83
2017-12-29T05:11:21.518Z,998.82
2017-12-29T05:12:02.064Z,998.82
2017-12-29T05:12:42.599Z,998.84
2017-12-29T05:13:23.155Z,998.81
2017-12-29T05:14:03.732Z,998.82
2017-12-29T05:14:44.276Z,998.76
2017-12-29T05:15:24.788Z,998.82
2017-12-29T05:16:05.337Z,998.78
2017-12-29T05:16:45.888Z,998.81
2017-12-29T05:17:26.463Z,998.83
2017-12-29T05:18:07.005Z,998.8
2017-12-29T05:18:47.578Z,998.75
2017-12-29T05:19:28.133Z,998.74
2017-12-29T05:20:08.689Z,998.69
2017-12-29T05:20:49.231Z,998.7
2017-12-29T05:21:29.778Z,998.75
2017-12-29T05:22:10.338Z,998.77
2017-12-29T05:22:50.887Z,998.71
2017-12-29T05:23:31.452Z,998.77
2017-12-29T05:24:11.976Z,998.8
2017-12-29T05:24:52.542Z,998.79
2017-12-29T05:25:33.121Z,998.81
2017-12-29T05:26:13.679Z,998.78
2017-12-29T05:26:54.228Z,998.82
2017-12-29T05:27:34.765Z,998.75
2017-12-29T05:28:15.321Z,998.72
2017-12-29T05:28:55.874Z,998.75
2017-12-29T05:29:36.445Z,998.74
2017-12-29T05:30:16.999Z,998.74
2017-12-29T05:30:57.576Z,998.78
2017-12-29T05:31:38.126Z,998.7
2017-12-29T05:32:18.670Z,998.71
2017-12-29T05:32:59.216Z,998.73
2017-12-29T05:33:39.754Z,998.65
2017-12-29T05:34:20.304Z,998.65
2017-12-29T05:35:00.849Z,998.64
2017-12-29T05:35:41.408Z,998.66
2017-12-29T05:36:21.962Z,998.64
2017-12-29T05:37:02.516Z,998.61
2017-12-29T05:37:43.072Z,998.62
2017-12-29T05:38:23.630Z,998.62
2017-12-29T05:39:04.155Z,998.68
2017-12-29T05:39:44.668Z,998.68
2017-12-29T05:40:25.356Z,998.64
2017-12-29T05:41:05.913Z,998.66
2017-12-29T05:41:46.452Z,998.73
2017-12-29T05:42:27.030Z,998.68
2017-12-29T05:43:07.602Z,998.68
2017-12-29T05:43:48.142Z,998.68
2017-12-29T05:44:28.670Z,998.68
2017-12-29T05:45:09.206Z,998.67
2017-12-29T05:45:49.768Z,998.67
2017-12-29T05:46:30.297Z,998.7
2017-12-29T05:47:10.866Z,998.67
2017-12-29T05:47:51.406Z,998.68
2017-12-29T05:48:31.951Z,998.68
2017-12-29T05:49:12.502Z,998.65
2017-12-29T05:49:53.056Z,998.61
2017-12-29T05:50:33.596Z,998.62
2017-12-29T05:51:14.136Z,998.62
2017-12-29T05:51:54.687Z,998.6
2017-12-29T05:52:35.242Z,998.63
2017-12-29T05:53:15.799Z,998.61
2017-12-29T05:53:56.354Z,998.59
2017-12-29T05:54:36.914Z,998.62
2017-12-29T05:55:17.478Z,998.61
2017-12-29T05:55:58.002Z,998.59
2017-12-29T05:56:38.572Z,998.64
2017-12-29T05:57:19.110Z,998.62
2017-12-29T05:57:59.687Z,998.68
2017-12-29T05:58:40.235Z,998.68
2017-12-29T05:59:20.801Z,998.66
2017-12-29T06:00:02.039Z,998.75
2017-12-29T06:00:42.585Z,998.71
2017-12-29T06:01:23.138Z,998.68
2017-12-29T06:02:03.677Z,998.67
2017-12-29T06:02:44.239Z,998.69
2017-12-29T06:03:24.783Z,998.7
2017-12-29T06:04:05.338Z,998.75
2017-12-29T06:04:45.883Z,998.68
2017-12-29T06:05:26.439Z,998.72
2017-12-29T06:06:06.990Z,998.74
2017-12-29T06:06:47.545Z,998.71
2017-12-29T06:07:28.090Z,998.76
2017-12-29T06:08:08.658Z,998.79
2017-12-29T06:08:49.221Z,998.77
2017-12-29T06:09:29.733Z,998.72
2017-12-29T06:10:10.291Z,998.76
2017-12-29T06:10:50.848Z,998.76
2017-12-29T06:11:31.397Z,998.77
2017-12-29T06:12:11.950Z,998.78
2017-12-29T06:12:52.504Z,998.75
2017-12-29T06:13:33.065Z,998.78
2017-12-29T06:14:13.633Z,998.76
2017-12-29T06:14:54.188Z,998.76
2017-12-29T06:15:34.727Z,998.76
2017-12-29T06:16:15.270Z,998.83
2017-12-29T06:16:55.809Z,998.78
2017-12-29T06:17:36.377Z,998.79
2017-12-29T06:18:16.916Z,998.76
2017-12-29T06:18:57.453Z,998.79
2017-12-29T06:19:38.004Z,998.77
2017-12-29T06:20:18.549Z,998.75
2017-12-29T06:20:59.111Z,998.76
2017-12-29T06:21:39.670Z,998.74
2017-12-29T06:22:20.213Z,998.77
2017-12-29T06:23:00.763Z,998.73
2017-12-29T06:23:41.316Z,998.73
2017-12-29T06:24:21.858Z,998.82
2017-12-29T06:25:02.406Z,998.8
2017-12-29T06:25:42.951Z,998.79
2017-12-29T06:26:23.499Z,998.79
2017-12-29T06:27:04.042Z,998.82
2017-12-29T06:27:44.607Z,998.84
2017-12-29T06:28:25.159Z,998.84
2017-12-29T06:29:05.712Z,998.83
2017-12-29T06:29:46.265Z,998.87
2017-12-29T06:30:26.800Z,998.87
2017-12-29T06:31:07.365Z,998.9
2017-12-29T06:31:47.903Z,998.89
2017-12-29T06:32:28.467Z,998.87
2017-12-29T06:33:09.003Z,998.83
2017-12-29T06:33:49.549Z,998.88
2017-12-29T06:34:30.084Z,998.81
2017-12-29T06:35:10.630Z,998.81
2017-12-29T06:35:51.199Z,998.79
2017-12-29T06:36:31.747Z,998.79
2017-12-29T06:37:12.298Z,998.79
2017-12-29T06:37:52.864Z,998.77
2017-12-29T06:38:33.422Z,998.75
2017-12-29T06:39:13.973Z,998.77
2017-12-29T06:39:54.521Z,998.72
2017-12-29T06:40:35.063Z,998.69
2017-12-29T06:41:15.626Z,998.72
2017-12-29T06:41:56.183Z,998.73
2017-12-29T06:42:36.743Z,998.75
2017-12-29T06:43:17.292Z,998.69
2017-12-29T06:43:57.834Z,998.7
2017-12-29T06:44:38.367Z,998.67
2017-12-29T06:45:18.914Z,998.66
2017-12-29T06:45:59.468Z,998.63
2017-12-29T06:46:40.023Z,998.6
2017-12-29T06:47:20.590Z,998.66
2017-12-29T06:48:01.157Z,998.63
2017-12-29T06:48:41.695Z,998.63
2017-12-29T06:49:22.265Z,998.64
2017-12-29T06:50:02.789Z,998.63
2017-12-29T06:50:43.336Z,998.68
2017-12-29T06:51:23.893Z,998.63
2017-12-29T06:52:04.453Z,998.63
2017-12-29T06:52:45.016Z,998.64
2017-12-29T06:53:25.574Z,998.66
2017-12-29T06:54:06.119Z,998.63
2017-12-29T06:54:46.659Z,998.66
2017-12-29T06:55:27.206Z,998.7
2017-12-29T06:56:07.755Z,998.71
2017-12-29T06:56:48.303Z,998.69
2017-12-29T06:57:28.854Z,998.71
2017-12-29T06:58:09.393Z,998.68
2017-12-29T06:58:49.956Z,998.68
2017-12-29T06:59:30.505Z,998.68
2017-12-29T07:00:11.063Z,998.72
2017-12-29T07:00:51.641Z,998.72
2017-12-29T07:01:32.159Z,998.72
2017-12-29T07:02:12.705Z,998.79
2017-12-29T07:02:53.261Z,998.71
2017-12-29T07:03:33.833Z,998.78
2017-12-29T07:04:14.376Z,998.76
2017-12-29T07:04:54.917Z,998.77
2017-12-29T07:05:35.496Z,998.78
2017-12-29T07:06:16.009Z,998.81
2017-12-29T07:06:57.435Z,998.87
2017-12-29T07:07:37.964Z,998.82
2017-12-29T07:08:18.537Z,998.83
2017-12-29T07:09:00.041Z,998.82
2017-12-29T07:09:40.884Z,998.87
2017-12-29T07:10:21.513Z,998.86
2017-12-29T07:11:01.993Z,998.89
2017-12-29T07:11:42.532Z,998.86
2017-12-29T07:12:23.074Z,998.87
2017-12-29T07:13:03.632Z,998.8
2017-12-29T07:13:44.184Z,998.87
2017-12-29T07:14:24.735Z,998.83
2017-12-29T07:15:05.290Z,998.85
2017-12-29T07:15:45.829Z,998.84
2017-12-29T07:16:26.385Z,998.83
2017-12-29T07:17:06.945Z,998.83
2017-12-29T07:17:47.517Z,998.86
2017-12-29T07:18:28.076Z,998.82
2017-12-29T07:19:08.618Z,998.82
2017-12-29T07:19:49.162Z,998.86
2017-12-29T07:20:30.312Z,998.8
2017-12-29T07:21:10.851Z,998.78
2017-12-29T07:21:51.420Z,998.82
2017-12-29T07:22:31.981Z,998.76
2017-12-29T07:23:12.528Z,998.8
2017-12-29T07:23:53.074Z,998.8
2017-12-29T07:24:33.636Z,998.81
2017-12-29T07:25:14.195Z,998.81
2017-12-29T07:25:54.731Z,998.77
2017-12-29T07:26:35.279Z,998.84
2017-12-29T07:27:15.806Z,998.78
2017-12-29T07:27:56.988Z,998.83
2017-12-29T07:28:37.936Z,998.88
2017-12-29T07:29:18.477Z,998.78
2017-12-29T07:29:59.032Z,998.86
2017-12-29T07:30:39.595Z,998.92
2017-12-29T07:31:20.170Z,998.91
2017-12-29T07:32:00.722Z,998.9
2017-12-29T07:32:41.266Z,998.94
2017-12-29T07:33:21.840Z,998.92
2017-12-29T07:34:02.367Z,998.91
2017-12-29T07:34:43.241Z,998.91
2017-12-29T07:35:23.803Z,998.91
2017-12-29T07:36:04.361Z,998.95
2017-12-29T07:36:44.963Z,998.9
2017-12-29T07:37:25.452Z,998.92
2017-12-29T07:38:06.026Z,998.89
2017-12-29T07:38:46.553Z,998.87
2017-12-29T07:39:27.125Z,998.89
2017-12-29T07:40:07.634Z,998.9
2017-12-29T07:40:48.172Z,998.83
2017-12-29T07:42:29.665Z,998.88
2017-12-29T07:43:10.215Z,998.92
2017-12-29T07:43:50.766Z,998.9
2017-12-29T07:44:31.314Z,999.03
2017-12-29T07:45:11.865Z,998.9
2017-12-29T07:45:52.434Z,998.96
2017-12-29T07:46:32.993Z,998.97
2017-12-29T07:47:13.565Z,998.96
2017-12-29T07:47:54.092Z,999.02
2017-12-29T07:48:34.628Z,998.99
2017-12-29T07:49:15.236Z,999.02
2017-12-29T07:49:55.779Z,999.04
2017-12-29T07:50:36.344Z,999.02
2017-12-29T07:51:16.901Z,998.96
2017-12-29T07:51:57.466Z,999.02
2017-12-29T07:52:38.028Z,999.02
2017-12-29T07:53:18.576Z,998.92
2017-12-29T07:53:59.127Z,998.95
2017-12-29T07:54:39.686Z,998.92
2017-12-29T07:55:20.259Z,999
2017-12-29T07:56:00.833Z,998.97
2017-12-29T07:56:41.413Z,998.97
2017-12-29T07:57:21.975Z,998.99
2017-12-29T07:58:02.557Z,998.98
2017-12-29T07:58:43.107Z,998.99
2017-12-29T07:59:23.667Z,999.03
2017-12-29T08:00:04.237Z,999
2017-12-29T08:00:44.790Z,999.03
2017-12-29T08:01:26.165Z,999.03
2017-12-29T08:02:06.741Z,999.05
2017-12-29T08:02:47.315Z,999.08
2017-12-29T08:03:27.874Z,999.11
2017-12-29T08:04:08.424Z,999.09
2017-12-29T08:04:48.998Z,999.07
2017-12-29T08:05:29.619Z,999.13
2017-12-29T08:06:10.173Z,999.06
2017-12-29T08:06:50.744Z,999.04
2017-12-29T08:07:31.302Z,999.13
2017-12-29T08:08:11.852Z,999.05
2017-12-29T08:08:52.406Z,999.06
2017-12-29T08:09:32.967Z,999.06
2017-12-29T08:10:13.577Z,999.07
2017-12-29T08:10:54.132Z,998.99
2017-12-29T08:11:34.705Z,999.03
2017-12-29T08:12:15.270Z,998.95
2017-12-29T08:12:55.817Z,998.98
2017-12-29T08:13:36.376Z,998.96
2017-12-29T08:14:16.934Z,999
2017-12-29T08:14:57.488Z,999.01
2017-12-29T08:15:38.102Z,998.99
2017-12-29T08:16:18.663Z,998.96
2017-12-29T08:16:59.239Z,999.02
2017-12-29T08:17:39.798Z,998.96
2017-12-29T08:18:20.352Z,998.98
2017-12-29T08:19:00.896Z,999.02
2017-12-29T08:19:41.447Z,999.02
2017-12-29T08:20:22.005Z,999.01
2017-12-29T08:21:02.531Z,999.02
2017-12-29T08:21:43.112Z,999.05
2017-12-29T08:22:23.669Z,999.06
2017-12-29T08:23:04.232Z,999.03
2017-12-29T08:23:44.771Z,999.03
2017-12-29T08:24:25.328Z,999.01
2017-12-29T08:25:05.880Z,998.94
2017-12-29T08:25:46.443Z,998.93
2017-12-29T08:26:27.004Z,998.87
2017-12-29T08:27:07.564Z,998.94
2017-12-29T08:27:48.139Z,998.92
2017-12-29T08:28:28.704Z,998.95
2017-12-29T08:29:09.270Z,998.94